sensor_id;sensor_type;location;lat;lon;timestamp;pressure;altitude;pressure_sealevel;temperature;humidity
12664;BME280;6396;58.490;15.528;2022-11-15T00:02:01;101056.81;;;10.08;100.00
12664;BME280;6396;58.490;15.528;2022-11-15T00:04:31;101124.88;;;10.40;100.00
12664;BME280;6396;58.490;15.528;2022-11-15T00:06:58;101169.44;;;10.60;100.00
12664;BME280;6396;58.490;15.528;2022-11-15T00:09:25;101047.19;;;10.03;100.00
12664;BME280;6396;58.490;15.528;2022-11-15T00:11:51;101160.53;;;10.64;100.00
12664;BME280;6396;58.490;15.528;2022-11-15T00:14:18;101125.78;;;10.38;100.00
12664;BME280;6396;58.490;15.528;2022-11-15T00:16:45;101149.09;;;10.65;100.00
12664;BME280;6396;58.490;15.528;2022-11-15T00:19:15;101102.06;;;10.36;100.00
12664;BME280;6396;58.490;15.528;2022-11-15T00:21:43;100970.06;;;9.37;100.00
12664;BME280;6396;58.490;15.528;2022-11-15T00:24:10;101155.25;;;10.64;100.00
12664;BME280;6396;58.490;15.528;2022-11-15T00:26:37;101172.84;;;10.65;100.00
12664;BME280;6396;58.490;15.528;2022-11-15T00:29:04;101160.59;;;10.61;100.00
12664;BME280;6396;58.490;15.528;2022-11-15T00:31:31;101260.06;;;10.60;100.00
12664;BME280;6396;58.490;15.528;2022-11-15T00:33:57;101130.84;;;10.50;100.00
12664;BME280;6396;58.490;15.528;2022-11-15T00:36:24;101138.94;;;10.39;100.00
12664;BME280;6396;58.490;15.528;2022-11-15T00:38:52;101122.41;;;10.30;100.00
12664;BME280;6396;58.490;15.528;2022-11-15T00:41:19;101176.47;;;10.59;100.00
12664;BME280;6396;58.490;15.528;2022-11-15T00:43:47;101146.63;;;10.54;100.00
12664;BME280;6396;58.490;15.528;2022-11-15T00:46:13;101126.63;;;10.40;100.00
12664;BME280;6396;58.490;15.528;2022-11-15T00:48:40;101097.94;;;10.22;100.00
12664;BME280;6396;58.490;15.528;2022-11-15T00:51:07;100765.69;;;8.12;100.00
12664;BME280;6396;58.490;15.528;2022-11-15T00:53:34;101044.69;;;9.94;100.00
12664;BME280;6396;58.490;15.528;2022-11-15T00:56:02;101127.59;;;10.34;100.00
12664;BME280;6396;58.490;15.528;2022-11-15T00:58:29;101147.66;;;10.46;100.00
12664;BME280;6396;58.490;15.528;2022-11-15T01:00:56;101145.94;;;10.43;100.00
12664;BME280;6396;58.490;15.528;2022-11-15T01:03:23;101034.59;;;9.68;100.00
12664;BME280;6396;58.490;15.528;2022-11-15T01:05:49;101156.44;;;10.46;100.00
12664;BME280;6396;58.490;15.528;2022-11-15T01:08:16;101127.59;;;10.37;100.00
12664;BME280;6396;58.490;15.528;2022-11-15T01:10:43;101131.03;;;10.41;100.00
12664;BME280;6396;58.490;15.528;2022-11-15T01:13:11;101008.13;;;9.73;100.00
12664;BME280;6396;58.490;15.528;2022-11-15T01:15:39;101147.63;;;10.47;100.00
12664;BME280;6396;58.490;15.528;2022-11-15T01:18:06;101151.16;;;10.46;100.00
12664;BME280;6396;58.490;15.528;2022-11-15T01:20:33;101117.03;;;10.34;100.00
12664;BME280;6396;58.490;15.528;2022-11-15T01:23:00;101140.50;;;10.52;100.00
12664;BME280;6396;58.490;15.528;2022-11-15T01:25:27;101136.91;;;10.56;100.00
12664;BME280;6396;58.490;15.528;2022-11-15T01:27:53;101088.94;;;10.33;100.00
12664;BME280;6396;58.490;15.528;2022-11-15T01:30:22;101061.16;;;10.08;100.00
12664;BME280;6396;58.490;15.528;2022-11-15T01:32:49;101131.50;;;10.62;100.00
12664;BME280;6396;58.490;15.528;2022-11-15T01:35:16;101087.06;;;10.38;100.00
12664;BME280;6396;58.490;15.528;2022-11-15T01:37:43;101091.41;;;10.42;100.00
12664;BME280;6396;58.490;15.528;2022-11-15T01:40:10;101157.03;;;10.63;100.00
12664;BME280;6396;58.490;15.528;2022-11-15T01:42:37;101161.44;;;10.63;100.00
12664;BME280;6396;58.490;15.528;2022-11-15T01:45:05;100975.72;;;9.12;100.00
12664;BME280;6396;58.490;15.528;2022-11-15T01:47:36;101144.69;;;10.64;100.00
12664;BME280;6396;58.490;15.528;2022-11-15T01:50:07;101130.63;;;10.63;100.00
12664;BME280;6396;58.490;15.528;2022-11-15T01:52:36;101152.69;;;10.59;100.00
12664;BME280;6396;58.490;15.528;2022-11-15T01:55:06;101147.53;;;10.52;100.00
12664;BME280;6396;58.490;15.528;2022-11-15T01:57:34;101080.25;;;10.27;100.00
12664;BME280;6396;58.490;15.528;2022-11-15T02:00:03;100805.16;;;8.72;100.00
12664;BME280;6396;58.490;15.528;2022-11-15T02:02:32;101121.22;;;10.47;100.00
12664;BME280;6396;58.490;15.528;2022-11-15T02:04:59;100967.81;;;9.66;100.00
12664;BME280;6396;58.490;15.528;2022-11-15T02:07:28;101091.53;;;10.35;100.00
12664;BME280;6396;58.490;15.528;2022-11-15T02:09:55;101100.03;;;10.50;100.00
12664;BME280;6396;58.490;15.528;2022-11-15T02:12:24;101047.97;;;10.11;100.00
12664;BME280;6396;58.490;15.528;2022-11-15T02:14:53;101099.97;;;10.53;100.00
12664;BME280;6396;58.490;15.528;2022-11-15T02:17:41;101029.47;;;10.13;100.00
12664;BME280;6396;58.490;15.528;2022-11-15T02:20:39;101116.81;;;10.49;100.00
12664;BME280;6396;58.490;15.528;2022-11-15T02:23:41;101040.22;;;9.99;100.00
12664;BME280;6396;58.490;15.528;2022-11-15T02:26:27;101097.41;;;10.50;100.00
12664;BME280;6396;58.490;15.528;2022-11-15T02:29:00;101025.88;;;10.18;100.00
12664;BME280;6396;58.490;15.528;2022-11-15T02:31:36;101079.88;;;10.48;100.00
12664;BME280;6396;58.490;15.528;2022-11-15T02:34:11;101078.16;;;10.45;100.00
12664;BME280;6396;58.490;15.528;2022-11-15T02:36:44;101078.25;;;10.41;100.00
12664;BME280;6396;58.490;15.528;2022-11-15T02:39:23;100993.06;;;9.81;100.00
12664;BME280;6396;58.490;15.528;2022-11-15T02:41:55;101013.22;;;9.83;100.00
12664;BME280;6396;58.490;15.528;2022-11-15T02:44:26;101008.69;;;9.93;100.00
12664;BME280;6396;58.490;15.528;2022-11-15T02:47:00;100949.63;;;9.51;100.00
12664;BME280;6396;58.490;15.528;2022-11-15T02:49:43;101088.09;;;10.30;100.00
12664;BME280;6396;58.490;15.528;2022-11-15T02:52:14;100936.88;;;9.24;100.00
12664;BME280;6396;58.490;15.528;2022-11-15T02:54:43;100968.81;;;9.59;100.00
12664;BME280;6396;58.490;15.528;2022-11-15T02:57:22;101086.34;;;10.30;100.00
12664;BME280;6396;58.490;15.528;2022-11-15T03:00:02;101061.97;;;10.16;100.00
12664;BME280;6396;58.490;15.528;2022-11-15T03:02:55;101087.34;;;10.23;100.00
12664;BME280;6396;58.490;15.528;2022-11-15T03:05:29;101033.31;;;9.93;100.00
12664;BME280;6396;58.490;15.528;2022-11-15T03:08:07;101047.28;;;9.98;100.00
12664;BME280;6396;58.490;15.528;2022-11-15T03:10:42;101105.91;;;10.17;100.00
12664;BME280;6396;58.490;15.528;2022-11-15T03:13:20;100984.59;;;9.61;100.00
12664;BME280;6396;58.490;15.528;2022-11-15T03:15:53;101092.69;;;10.19;100.00
12664;BME280;6396;58.490;15.528;2022-11-15T03:18:31;100967.28;;;9.46;100.00
12664;BME280;6396;58.490;15.528;2022-11-15T03:21:00;100975.25;;;9.42;100.00
12664;BME280;6396;58.490;15.528;2022-11-15T03:23:30;101083.00;;;10.19;100.00
12664;BME280;6396;58.490;15.528;2022-11-15T03:25:59;101110.31;;;10.18;100.00
12664;BME280;6396;58.490;15.528;2022-11-15T03:28:31;101007.69;;;9.45;100.00
12664;BME280;6396;58.490;15.528;2022-11-15T03:31:01;101010.69;;;9.79;100.00
12664;BME280;6396;58.490;15.528;2022-11-15T03:33:52;101174.56;;;10.14;100.00
12664;BME280;6396;58.490;15.528;2022-11-15T03:36:22;101153.53;;;10.11;100.00
12664;BME280;6396;58.490;15.528;2022-11-15T03:38:52;101041.34;;;9.86;100.00
12664;BME280;6396;58.490;15.528;2022-11-15T03:41:23;100822.25;;;8.44;100.00
12664;BME280;6396;58.490;15.528;2022-11-15T03:43:54;101076.31;;;9.98;100.00
12664;BME280;6396;58.490;15.528;2022-11-15T03:46:26;100976.91;;;9.49;100.00
12664;BME280;6396;58.490;15.528;2022-11-15T03:49:00;100959.44;;;9.42;100.00
12664;BME280;6396;58.490;15.528;2022-11-15T03:51:31;101076.22;;;10.03;100.00
12664;BME280;6396;58.490;15.528;2022-11-15T03:53:57;100954.31;;;9.33;100.00
12664;BME280;6396;58.490;15.528;2022-11-15T03:56:24;101079.75;;;10.02;100.00
12664;BME280;6396;58.490;15.528;2022-11-15T03:58:51;101081.56;;;9.98;100.00
12664;BME280;6396;58.490;15.528;2022-11-15T04:01:18;100924.00;;;9.08;100.00
12664;BME280;6396;58.490;15.528;2022-11-15T04:03:45;101079.16;;;9.83;100.00
12664;BME280;6396;58.490;15.528;2022-11-15T04:06:13;101116.78;;;9.96;100.00
12664;BME280;6396;58.490;15.528;2022-11-15T04:08:40;101054.13;;;9.54;100.00
12664;BME280;6396;58.490;15.528;2022-11-15T04:11:07;101090.34;;;9.99;100.00
12664;BME280;6396;58.490;15.528;2022-11-15T04:13:33;101113.19;;;10.01;100.00
12664;BME280;6396;58.490;15.528;2022-11-15T04:16:00;101047.56;;;9.80;100.00
12664;BME280;6396;58.490;15.528;2022-11-15T04:18:27;101070.47;;;9.77;100.00
12664;BME280;6396;58.490;15.528;2022-11-15T04:20:54;101024.22;;;9.58;100.00
12664;BME280;6396;58.490;15.528;2022-11-15T04:23:39;101017.47;;;9.39;100.00
12664;BME280;6396;58.490;15.528;2022-11-15T04:26:25;101087.72;;;9.97;100.00
12664;BME280;6396;58.490;15.528;2022-11-15T04:28:52;101097.69;;;9.80;100.00
12664;BME280;6396;58.490;15.528;2022-11-15T04:31:37;101088.72;;;9.90;100.00
12664;BME280;6396;58.490;15.528;2022-11-15T04:34:04;101081.19;;;9.66;100.00
12664;BME280;6396;58.490;15.528;2022-11-15T04:36:30;101054.81;;;9.66;100.00
12664;BME280;6396;58.490;15.528;2022-11-15T04:39:30;101067.97;;;9.68;100.00
12664;BME280;6396;58.490;15.528;2022-11-15T04:41:57;101055.91;;;9.55;100.00
12664;BME280;6396;58.490;15.528;2022-11-15T04:44:24;101042.22;;;9.29;100.00
12664;BME280;6396;58.490;15.528;2022-11-15T04:46:50;101059.50;;;9.48;100.00
12664;BME280;6396;58.490;15.528;2022-11-15T04:49:17;101112.63;;;9.80;100.00
12664;BME280;6396;58.490;15.528;2022-11-15T04:51:44;101037.72;;;9.35;100.00
12664;BME280;6396;58.490;15.528;2022-11-15T04:54:11;101015.16;;;9.16;100.00
12664;BME280;6396;58.490;15.528;2022-11-15T04:56:39;101112.69;;;9.77;100.00
12664;BME280;6396;58.490;15.528;2022-11-15T04:59:06;101118.84;;;9.76;100.00
12664;BME280;6396;58.490;15.528;2022-11-15T05:01:33;100812.28;;;8.01;100.00
12664;BME280;6396;58.490;15.528;2022-11-15T05:04:00;101027.41;;;9.22;100.00
12664;BME280;6396;58.490;15.528;2022-11-15T05:06:45;101085.06;;;9.43;100.00
12664;BME280;6396;58.490;15.528;2022-11-15T05:09:12;101108.63;;;9.52;100.00
12664;BME280;6396;58.490;15.528;2022-11-15T05:11:41;101071.84;;;9.46;100.00
12664;BME280;6396;58.490;15.528;2022-11-15T05:14:08;100977.13;;;8.71;100.00
12664;BME280;6396;58.490;15.528;2022-11-15T05:16:35;101109.22;;;9.73;100.00
12664;BME280;6396;58.490;15.528;2022-11-15T05:19:02;101125.88;;;9.77;100.00
12664;BME280;6396;58.490;15.528;2022-11-15T05:21:29;100929.84;;;8.67;100.00
12664;BME280;6396;58.490;15.528;2022-11-15T05:23:55;101031.69;;;9.29;100.00
12664;BME280;6396;58.490;15.528;2022-11-15T05:26:22;101018.59;;;9.23;100.00
12664;BME280;6396;58.490;15.528;2022-11-15T05:28:53;101108.38;;;9.70;100.00
12664;BME280;6396;58.490;15.528;2022-11-15T05:31:21;101017.88;;;9.13;100.00
12664;BME280;6396;58.490;15.528;2022-11-15T05:33:49;101108.44;;;9.67;100.00
12664;BME280;6396;58.490;15.528;2022-11-15T05:36:20;101110.25;;;9.63;100.00
12664;BME280;6396;58.490;15.528;2022-11-15T05:38:49;101038.78;;;9.24;100.00
12664;BME280;6396;58.490;15.528;2022-11-15T05:41:19;101017.97;;;9.04;100.00
12664;BME280;6396;58.490;15.528;2022-11-15T05:43:48;101145.47;;;9.58;100.00
12664;BME280;6396;58.490;15.528;2022-11-15T05:46:18;101118.31;;;9.53;100.00
12664;BME280;6396;58.490;15.528;2022-11-15T05:48:47;101076.63;;;9.15;100.00
12664;BME280;6396;58.490;15.528;2022-11-15T05:51:17;101063.47;;;9.17;100.00
12664;BME280;6396;58.490;15.528;2022-11-15T05:53:47;100848.53;;;7.74;100.00
12664;BME280;6396;58.490;15.528;2022-11-15T05:56:15;101124.44;;;9.52;100.00
12664;BME280;6396;58.490;15.528;2022-11-15T05:58:42;100969.38;;;8.64;100.00
12664;BME280;6396;58.490;15.528;2022-11-15T06:01:09;101079.19;;;9.23;100.00
12664;BME280;6396;58.490;15.528;2022-11-15T06:03:37;101128.00;;;9.51;100.00
12664;BME280;6396;58.490;15.528;2022-11-15T06:06:04;100860.59;;;7.92;100.00
12664;BME280;6396;58.490;15.528;2022-11-15T06:08:31;101149.16;;;9.45;100.00
12664;BME280;6396;58.490;15.528;2022-11-15T06:11:03;100846.84;;;7.67;100.00
12664;BME280;6396;58.490;15.528;2022-11-15T06:13:30;101146.63;;;9.37;100.00
12664;BME280;6396;58.490;15.528;2022-11-15T06:15:57;101143.16;;;9.34;100.00
12664;BME280;6396;58.490;15.528;2022-11-15T06:18:24;101129.47;;;9.06;100.00
12664;BME280;6396;58.490;15.528;2022-11-15T06:20:52;101149.41;;;9.27;100.00
12664;BME280;6396;58.490;15.528;2022-11-15T06:23:19;101048.31;;;8.65;100.00
12664;BME280;6396;58.490;15.528;2022-11-15T06:25:45;101147.84;;;9.11;100.00
12664;BME280;6396;58.490;15.528;2022-11-15T06:28:12;101207.47;;;9.18;100.00
12664;BME280;6396;58.490;15.528;2022-11-15T06:30:39;101151.25;;;9.19;100.00
12664;BME280;6396;58.490;15.528;2022-11-15T06:33:06;100866.44;;;7.38;100.00
12664;BME280;6396;58.490;15.528;2022-11-15T06:35:35;101159.19;;;9.16;100.00
12664;BME280;6396;58.490;15.528;2022-11-15T06:38:04;100838.63;;;7.13;100.00
12664;BME280;6396;58.490;15.528;2022-11-15T06:40:33;101165.44;;;9.07;100.00
12664;BME280;6396;58.490;15.528;2022-11-15T06:43:01;101180.44;;;9.02;100.00
12664;BME280;6396;58.490;15.528;2022-11-15T06:45:28;101152.56;;;8.81;100.00
12664;BME280;6396;58.490;15.528;2022-11-15T06:47:55;101224.34;;;8.98;100.00
12664;BME280;6396;58.490;15.528;2022-11-15T06:50:22;101165.72;;;8.81;100.00
12664;BME280;6396;58.490;15.528;2022-11-15T06:52:49;101186.66;;;8.93;100.00
12664;BME280;6396;58.490;15.528;2022-11-15T06:55:17;101211.25;;;8.92;100.00
12664;BME280;6396;58.490;15.528;2022-11-15T06:57:48;101163.13;;;8.77;100.00
12664;BME280;6396;58.490;15.528;2022-11-15T07:00:16;101191.97;;;8.87;100.00
12664;BME280;6396;58.490;15.528;2022-11-15T07:02:43;101238.53;;;8.84;100.00
12664;BME280;6396;58.490;15.528;2022-11-15T07:05:11;101198.19;;;8.82;100.00
12664;BME280;6396;58.490;15.528;2022-11-15T07:07:39;100974.13;;;7.36;100.00
12664;BME280;6396;58.490;15.528;2022-11-15T07:10:07;101139.16;;;8.07;100.00
12664;BME280;6396;58.490;15.528;2022-11-15T07:12:38;101210.50;;;8.81;100.00
12664;BME280;6396;58.490;15.528;2022-11-15T07:15:07;101249.38;;;8.49;100.00
12664;BME280;6396;58.490;15.528;2022-11-15T07:17:34;101145.06;;;8.39;100.00
12664;BME280;6396;58.490;15.528;2022-11-15T07:20:01;101109.38;;;8.04;100.00
12664;BME280;6396;58.490;15.528;2022-11-15T07:22:28;101155.75;;;8.18;100.00
12664;BME280;6396;58.490;15.528;2022-11-15T07:24:55;101078.13;;;7.66;100.00
12664;BME280;6396;58.490;15.528;2022-11-15T07:27:22;101223.78;;;8.66;100.00
12664;BME280;6396;58.490;15.528;2022-11-15T07:29:50;101174.16;;;8.18;100.00
12664;BME280;6396;58.490;15.528;2022-11-15T07:32:17;101189.03;;;8.18;100.00
12664;BME280;6396;58.490;15.528;2022-11-15T07:34:44;101181.06;;;8.34;100.00
12664;BME280;6396;58.490;15.528;2022-11-15T07:37:12;101180.22;;;8.29;100.00
12664;BME280;6396;58.490;15.528;2022-11-15T07:39:39;101207.34;;;8.39;100.00
12664;BME280;6396;58.490;15.528;2022-11-15T07:42:06;101169.78;;;8.16;100.00
12664;BME280;6396;58.490;15.528;2022-11-15T07:44:51;101230.13;;;8.41;100.00
12664;BME280;6396;58.490;15.528;2022-11-15T07:47:18;101152.41;;;7.89;100.00
12664;BME280;6396;58.490;15.528;2022-11-15T07:49:47;101085.16;;;7.59;100.00
12664;BME280;6396;58.490;15.528;2022-11-15T07:52:14;101215.38;;;8.15;100.00
12664;BME280;6396;58.490;15.528;2022-11-15T07:55:04;101136.88;;;7.59;100.00
12664;BME280;6396;58.490;15.528;2022-11-15T07:57:32;101167.44;;;7.70;100.00
12664;BME280;6396;58.490;15.528;2022-11-15T08:00:04;100935.16;;;6.70;100.00
12664;BME280;6396;58.490;15.528;2022-11-15T08:02:32;100802.72;;;5.89;100.00
12664;BME280;6396;58.490;15.528;2022-11-15T08:05:00;100678.16;;;5.10;100.00
12664;BME280;6396;58.490;15.528;2022-11-15T08:07:33;100956.13;;;6.76;100.00
12664;BME280;6396;58.490;15.528;2022-11-15T08:10:01;100870.84;;;5.80;100.00
12664;BME280;6396;58.490;15.528;2022-11-15T08:12:29;100929.19;;;6.45;100.00
12664;BME280;6396;58.490;15.528;2022-11-15T08:14:56;100558.94;;;4.38;100.00
12664;BME280;6396;58.490;15.528;2022-11-15T08:17:29;100830.63;;;5.93;100.00
12664;BME280;6396;58.490;15.528;2022-11-15T08:19:58;100618.19;;;4.13;100.00
12664;BME280;6396;58.490;15.528;2022-11-15T08:22:25;101267.88;;;8.37;100.00
12664;BME280;6396;58.490;15.528;2022-11-15T08:24:52;101299.44;;;8.37;100.00
12664;BME280;6396;58.490;15.528;2022-11-15T08:27:23;101016.44;;;6.87;100.00
12664;BME280;6396;58.490;15.528;2022-11-15T08:29:50;101122.09;;;7.40;100.00
12664;BME280;6396;58.490;15.528;2022-11-15T08:32:17;100693.13;;;4.46;100.00
12664;BME280;6396;58.490;15.528;2022-11-15T08:34:47;101275.78;;;8.31;100.00
12664;BME280;6396;58.490;15.528;2022-11-15T08:37:14;100689.59;;;4.76;100.00
12664;BME280;6396;58.490;15.528;2022-11-15T08:39:41;101210.38;;;7.71;100.00
12664;BME280;6396;58.490;15.528;2022-11-15T08:42:08;101282.84;;;8.25;100.00
12664;BME280;6396;58.490;15.528;2022-11-15T08:44:35;101367.03;;;8.23;100.00
12664;BME280;6396;58.490;15.528;2022-11-15T08:47:02;101355.63;;;8.24;100.00
12664;BME280;6396;58.490;15.528;2022-11-15T08:49:30;100880.53;;;5.40;100.00
12664;BME280;6396;58.490;15.528;2022-11-15T08:52:00;100894.47;;;5.41;100.00
12664;BME280;6396;58.490;15.528;2022-11-15T08:54:29;100542.44;;;3.38;100.00
12664;BME280;6396;58.490;15.528;2022-11-15T08:56:57;100632.13;;;4.39;100.00
12664;BME280;6396;58.490;15.528;2022-11-15T08:59:24;100829.84;;;5.56;100.00
12664;BME280;6396;58.490;15.528;2022-11-15T09:01:51;100687.88;;;4.25;100.00
12664;BME280;6396;58.490;15.528;2022-11-15T09:04:21;100528.53;;;3.83;100.00
12664;BME280;6396;58.490;15.528;2022-11-15T09:06:48;101159.78;;;7.27;100.00
12664;BME280;6396;58.490;15.528;2022-11-15T09:09:17;101036.66;;;6.59;100.00
12664;BME280;6396;58.490;15.528;2022-11-15T09:11:44;100733.13;;;4.99;100.00
12664;BME280;6396;58.490;15.528;2022-11-15T09:14:12;101394.22;;;8.25;100.00
12664;BME280;6396;58.490;15.528;2022-11-15T09:16:41;100787.19;;;5.09;100.00
12664;BME280;6396;58.490;15.528;2022-11-15T09:19:08;101326.69;;;8.24;100.00
12664;BME280;6396;58.490;15.528;2022-11-15T09:21:35;101025.28;;;6.67;100.00
12664;BME280;6396;58.490;15.528;2022-11-15T09:24:02;101324.06;;;8.24;100.00
12664;BME280;6396;58.490;15.528;2022-11-15T09:26:31;101342.47;;;8.26;100.00
12664;BME280;6396;58.490;15.528;2022-11-15T09:28:58;101298.63;;;8.28;100.00
12664;BME280;6396;58.490;15.528;2022-11-15T09:31:27;100800.25;;;5.44;100.00
12664;BME280;6396;58.490;15.528;2022-11-15T09:33:54;100544.22;;;3.93;100.00
12664;BME280;6396;58.490;15.528;2022-11-15T09:36:22;100552.03;;;3.98;100.00
12664;BME280;6396;58.490;15.528;2022-11-15T09:38:49;100846.50;;;5.42;100.00
12664;BME280;6396;58.490;15.528;2022-11-15T09:41:32;100824.69;;;4.81;100.00
12664;BME280;6396;58.490;15.528;2022-11-15T09:44:11;101074.22;;;6.74;100.00
12664;BME280;6396;58.490;15.528;2022-11-15T09:46:48;100867.38;;;5.60;100.00
12664;BME280;6396;58.490;15.528;2022-11-15T09:49:18;101133.53;;;7.21;100.00
12664;BME280;6396;58.490;15.528;2022-11-15T09:51:50;100892.69;;;5.64;100.00
12664;BME280;6396;58.490;15.528;2022-11-15T09:54:25;100666.13;;;4.21;100.00
12664;BME280;6396;58.490;15.528;2022-11-15T09:57:04;101205.13;;;7.71;100.00
12664;BME280;6396;58.490;15.528;2022-11-15T09:59:43;101072.38;;;6.98;100.00
12664;BME280;6396;58.490;15.528;2022-11-15T10:02:22;101338.03;;;8.37;100.00
12664;BME280;6396;58.490;15.528;2022-11-15T10:04:57;101309.06;;;8.43;100.00
12664;BME280;6396;58.490;15.528;2022-11-15T10:07:28;101347.63;;;8.45;100.00
12664;BME280;6396;58.490;15.528;2022-11-15T10:10:02;101288.94;;;8.33;100.00
12664;BME280;6396;58.490;15.528;2022-11-15T10:12:36;101346.75;;;8.43;100.00
12664;BME280;6396;58.490;15.528;2022-11-15T10:15:06;101136.94;;;7.47;100.00
12664;BME280;6396;58.490;15.528;2022-11-15T10:18:05;101314.28;;;8.49;100.00
12664;BME280;6396;58.490;15.528;2022-11-15T10:20:42;101321.28;;;8.51;100.00
12664;BME280;6396;58.490;15.528;2022-11-15T10:23:13;101197.13;;;7.87;100.00
12664;BME280;6396;58.490;15.528;2022-11-15T10:25:41;101288.81;;;8.51;100.00
12664;BME280;6396;58.490;15.528;2022-11-15T10:28:16;101322.97;;;8.66;100.00
12664;BME280;6396;58.490;15.528;2022-11-15T10:30:45;101314.97;;;8.73;100.00
12664;BME280;6396;58.490;15.528;2022-11-15T10:33:20;101172.63;;;7.87;100.00
12664;BME280;6396;58.490;15.528;2022-11-15T10:36:14;101322.91;;;8.70;100.00
12664;BME280;6396;58.490;15.528;2022-11-15T10:38:57;101284.47;;;8.48;100.00
12664;BME280;6396;58.490;15.528;2022-11-15T10:41:45;101275.66;;;8.55;100.00
12664;BME280;6396;58.490;15.528;2022-11-15T10:44:25;101275.59;;;8.60;100.00
12664;BME280;6396;58.490;15.528;2022-11-15T10:49:58;101243.31;;;8.35;100.00
12664;BME280;6396;58.490;15.528;2022-11-15T10:52:26;101177.91;;;7.79;100.00
12664;BME280;6396;58.490;15.528;2022-11-15T10:54:55;101317.69;;;8.67;100.00
12664;BME280;6396;58.490;15.528;2022-11-15T10:57:26;101154.34;;;7.63;100.00
12664;BME280;6396;58.490;15.528;2022-11-15T10:59:58;101323.03;;;8.55;100.00
12664;BME280;6396;58.490;15.528;2022-11-15T11:02:32;101324.78;;;8.53;100.00
12664;BME280;6396;58.490;15.528;2022-11-15T11:05:01;101298.59;;;8.32;100.00
12664;BME280;6396;58.490;15.528;2022-11-15T11:07:30;101343.22;;;8.53;100.00
12664;BME280;6396;58.490;15.528;2022-11-15T11:10:00;101298.53;;;8.44;100.00
12664;BME280;6396;58.490;15.528;2022-11-15T11:12:28;101278.44;;;8.34;100.00
12664;BME280;6396;58.490;15.528;2022-11-15T11:14:59;101323.00;;;8.57;100.00
12664;BME280;6396;58.490;15.528;2022-11-15T11:17:41;101280.22;;;8.31;100.00
12664;BME280;6396;58.490;15.528;2022-11-15T11:20:18;101201.56;;;7.79;100.00
12664;BME280;6396;58.490;15.528;2022-11-15T11:23:01;101288.09;;;8.31;100.00
12664;BME280;6396;58.490;15.528;2022-11-15T11:25:34;101306.47;;;8.35;100.00
12664;BME280;6396;58.490;15.528;2022-11-15T11:28:15;101261.88;;;8.05;100.00
12664;BME280;6396;58.490;15.528;2022-11-15T11:30:56;101297.75;;;8.24;100.00
12664;BME280;6396;58.490;15.528;2022-11-15T11:33:29;101289.94;;;8.09;100.00
12664;BME280;6396;58.490;15.528;2022-11-15T11:36:06;101339.72;;;8.45;100.00
12664;BME280;6396;58.490;15.528;2022-11-15T11:38:49;101336.22;;;8.48;100.00
12664;BME280;6396;58.490;15.528;2022-11-15T11:41:27;101332.72;;;8.46;100.00
12664;BME280;6396;58.490;15.528;2022-11-15T11:44:05;101346.75;;;8.43;100.00
12664;BME280;6396;58.490;15.528;2022-11-15T11:46:47;101344.16;;;8.39;100.00
12664;BME280;6396;58.490;15.528;2022-11-15T11:49:19;101360.84;;;8.39;100.00
12664;BME280;6396;58.490;15.528;2022-11-15T11:51:54;101323.97;;;8.42;100.00
12664;BME280;6396;58.490;15.528;2022-11-15T11:54:25;101272.38;;;8.14;100.00
12664;BME280;6396;58.490;15.528;2022-11-15T11:57:00;101158.81;;;7.44;100.00
12664;BME280;6396;58.490;15.528;2022-11-15T11:59:33;101197.25;;;7.69;100.00
12664;BME280;6396;58.490;15.528;2022-11-15T12:02:14;101231.28;;;7.89;100.00
12664;BME280;6396;58.490;15.528;2022-11-15T12:04:46;101024.38;;;6.73;100.00
12664;BME280;6396;58.490;15.528;2022-11-15T12:07:20;101086.31;;;7.15;100.00
12664;BME280;6396;58.490;15.528;2022-11-15T12:09:53;101316.09;;;8.36;100.00
12664;BME280;6396;58.490;15.528;2022-11-15T12:12:29;101273.41;;;7.83;100.00
12664;BME280;6396;58.490;15.528;2022-11-15T12:15:00;101191.16;;;7.58;100.00
12664;BME280;6396;58.490;15.528;2022-11-15T12:17:31;101335.44;;;8.28;100.00
12664;BME280;6396;58.490;15.528;2022-11-15T12:19:59;101232.28;;;7.70;100.00
12664;BME280;6396;58.490;15.528;2022-11-15T12:22:38;101310.91;;;8.24;100.00
12664;BME280;6396;58.490;15.528;2022-11-15T12:25:13;101379.31;;;8.27;100.00
12664;BME280;6396;58.490;15.528;2022-11-15T12:27:45;101320.53;;;8.31;100.00
12664;BME280;6396;58.490;15.528;2022-11-15T12:30:16;101292.53;;;8.15;100.00
12664;BME280;6396;58.490;15.528;2022-11-15T12:33:00;101275.94;;;8.04;100.00
12664;BME280;6396;58.490;15.528;2022-11-15T12:35:41;101189.47;;;7.50;100.00
12664;BME280;6396;58.490;15.528;2022-11-15T12:38:10;101177.19;;;7.49;100.00
12664;BME280;6396;58.490;15.528;2022-11-15T12:40:38;101317.00;;;8.34;100.00
12664;BME280;6396;58.490;15.528;2022-11-15T12:43:37;101314.44;;;8.25;100.00
12664;BME280;6396;58.490;15.528;2022-11-15T12:46:08;101158.91;;;7.31;100.00
12664;BME280;6396;58.490;15.528;2022-11-15T12:49:00;101317.91;;;8.21;100.00
12664;BME280;6396;58.490;15.528;2022-11-15T12:54:59;101278.59;;;7.95;100.00
12664;BME280;6396;58.490;15.528;2022-11-15T12:57:48;101204.38;;;7.46;100.00
12664;BME280;6396;58.490;15.528;2022-11-15T13:00:44;101311.03;;;7.99;100.00
12664;BME280;6396;58.490;15.528;2022-11-15T13:03:27;101275.22;;;7.63;100.00
12664;BME280;6396;58.490;15.528;2022-11-15T13:09:01;101328.53;;;8.06;100.00
12664;BME280;6396;58.490;15.528;2022-11-15T13:11:50;101337.31;;;7.97;100.00
12664;BME280;6396;58.490;15.528;2022-11-15T13:14:43;101333.81;;;7.95;100.00
12664;BME280;6396;58.490;15.528;2022-11-15T13:17:34;101310.22;;;7.80;100.00
12664;BME280;6396;58.490;15.528;2022-11-15T13:20:19;101366.25;;;7.97;100.00